Flint, MI (48557)

6:28 AM EDT on July 07, 2015 (GMT -0400)
Dave Grand Blanc | | Change Station
CLOSE
Current Station
Personal Weather Station
Location: Grand Blanc, MI
Elevation: 797 ft
Nearby Weather Stations

Elev 797 ft 42.95 °N, 83.67 °W | Updated 6 seconds ago

Mostly Cloudy
Mostly Cloudy
74.9 °F
Feels Like 76 °F
N
1.1
Wind Variable Wind from West
Gusts 4.0 mph

Today
High -- | Low -- °F
--% Chance of Precip.
Yesterday
High -- | Low -- °F
Precip. -- in
6:02 AM 9:16 PM
Waning Gibbous, 66% visible
Pressure 29.85 in
Visibility 1.5 miles
Clouds Few 1200 ft
Scattered Clouds 2500 ft
Mostly Cloudy 3700 ft
Heat Index 76 °F
Dew Point 68 °F
Humidity 78%
Rainfall 0.05 in
Snow Depth Not available.
UV 0 out of 12
Pollen 4.70 out of 12
Air Quality Not available.
Flu Activity Not available.
SPECI KFNT 071021Z 23008KT 1 1/2SM R09/3500VP6000FT -RA FEW012 SCT025 BKN037 23/20 A2985 RMK AO2 RAB17 P0000 T02330200

More Conditions Fewer Conditions

Pressure 29.85 in
Visibility 1.5 miles
Clouds Few 1200 ft
Scattered Clouds 2500 ft
Mostly Cloudy 3700 ft
Heat Index 76 °F
Dew Point 68 °F
Humidity 78%
Rainfall 0.05 in
Snow Depth Not available.
UV 0 out of 12
Pollen 4.70 out of 12
Air Quality Not available.
Flu Activity Not available.
SPECI KFNT 071021Z 23008KT 1 1/2SM R09/3500VP6000FT -RA FEW012 SCT025 BKN037 23/20 A2985 RMK AO2 RAB17 P0000 T02330200

More Conditions Fewer Conditions

10-Day Weather Forecast

×

Almanac

Astronomy

Jul. 07, 2015 Rise Set
Actual Time
Civil Twilight
Nautical Twilight
Astronomical Twilight
Moon
Length of Visible Light
Length of Day
Tomorrow will be .
, % of the Moon is Illuminated

Today's Extremes

State Highs State Lows

Community

WunderPhotos

Upload Photos

1,835,760 photos uploaded!

WunderBlogs® & News

Nearby

Air Quality

  Air Quality AQ Index Pollutant
Not available.

Snow Depth

Station Depth Elevation

Earthquake Activity

City Distance Mag. Time & Date
Minimum magnitude displayed is 2.5.

Coastal Water Temperatures

Place Temperature

Stations

Nearby Weather Stations

Station Location Temp. Windchill Dew Point Humidity Wind Precip. Elev Updated Type